sensor_id;sensor_type;location;lat;lon;timestamp;P1;durP1;ratioP1;P2;durP2;ratioP2
51529;SDS011;37613;51.788;21.582;2022-08-14T00:03:30;10.90;;;9.80;;
51529;SDS011;37613;51.788;21.582;2022-08-14T00:07:32;14.00;;;9.70;;
51529;SDS011;37613;51.788;21.582;2022-08-14T00:11:35;10.60;;;9.40;;
51529;SDS011;37613;51.788;21.582;2022-08-14T00:15:38;14.60;;;9.10;;
51529;SDS011;37613;51.788;21.582;2022-08-14T00:19:43;13.60;;;9.00;;
51529;SDS011;37613;51.788;21.582;2022-08-14T00:23:45;11.60;;;9.50;;
51529;SDS011;37613;51.788;21.582;2022-08-14T00:27:46;10.80;;;9.10;;
51529;SDS011;37613;51.788;21.582;2022-08-14T00:31:48;11.70;;;10.20;;
51529;SDS011;37613;51.788;21.582;2022-08-14T00:35:50;11.50;;;10.30;;
51529;SDS011;37613;51.788;21.582;2022-08-14T00:39:53;10.70;;;9.60;;
51529;SDS011;37613;51.788;21.582;2022-08-14T00:43:56;14.50;;;10.10;;
51529;SDS011;37613;51.788;21.582;2022-08-14T00:47:59;11.90;;;10.70;;
51529;SDS011;37613;51.788;21.582;2022-08-14T00:52:00;11.50;;;10.40;;
51529;SDS011;37613;51.788;21.582;2022-08-14T00:56:03;10.60;;;9.50;;
51529;SDS011;37613;51.788;21.582;2022-08-14T01:00:07;11.20;;;9.80;;
51529;SDS011;37613;51.788;21.582;2022-08-14T01:04:13;11.60;;;10.30;;
51529;SDS011;37613;51.788;21.582;2022-08-14T01:08:19;12.60;;;10.40;;
51529;SDS011;37613;51.788;21.582;2022-08-14T01:12:24;11.90;;;10.30;;
51529;SDS011;37613;51.788;21.582;2022-08-14T01:16:27;10.40;;;9.40;;
51529;SDS011;37613;51.788;21.582;2022-08-14T01:20:31;11.40;;;10.20;;
51529;SDS011;37613;51.788;21.582;2022-08-14T01:24:51;12.20;;;10.40;;
51529;SDS011;37613;51.788;21.582;2022-08-14T01:28:54;15.50;;;10.70;;
51529;SDS011;37613;51.788;21.582;2022-08-14T01:32:58;15.10;;;10.60;;
51529;SDS011;37613;51.788;21.582;2022-08-14T01:37:00;12.00;;;10.40;;
51529;SDS011;37613;51.788;21.582;2022-08-14T01:41:12;12.20;;;10.50;;
51529;SDS011;37613;51.788;21.582;2022-08-14T01:45:15;12.90;;;11.30;;
51529;SDS011;37613;51.788;21.582;2022-08-14T01:49:17;14.00;;;10.80;;
51529;SDS011;37613;51.788;21.582;2022-08-14T01:53:19;13.50;;;11.30;;
51529;SDS011;37613;51.788;21.582;2022-08-14T01:57:22;11.70;;;10.50;;
51529;SDS011;37613;51.788;21.582;2022-08-14T02:01:25;12.20;;;10.40;;
51529;SDS011;37613;51.788;21.582;2022-08-14T02:05:27;14.20;;;10.90;;
51529;SDS011;37613;51.788;21.582;2022-08-14T02:09:30;12.60;;;11.40;;
51529;SDS011;37613;51.788;21.582;2022-08-14T02:13:35;13.00;;;11.30;;
51529;SDS011;37613;51.788;21.582;2022-08-14T02:17:37;12.10;;;11.00;;
51529;SDS011;37613;51.788;21.582;2022-08-14T02:21:40;14.20;;;12.80;;
51529;SDS011;37613;51.788;21.582;2022-08-14T02:25:43;14.50;;;12.60;;
51529;SDS011;37613;51.788;21.582;2022-08-14T02:29:45;16.70;;;13.10;;
51529;SDS011;37613;51.788;21.582;2022-08-14T02:33:48;14.20;;;12.70;;
51529;SDS011;37613;51.788;21.582;2022-08-14T02:43:13;13.60;;;12.20;;
51529;SDS011;37613;51.788;21.582;2022-08-14T02:47:16;13.60;;;12.30;;
51529;SDS011;37613;51.788;21.582;2022-08-14T02:51:19;15.90;;;12.10;;
51529;SDS011;37613;51.788;21.582;2022-08-14T02:55:21;15.10;;;12.90;;
51529;SDS011;37613;51.788;21.582;2022-08-14T02:59:24;14.60;;;13.10;;
51529;SDS011;37613;51.788;21.582;2022-08-14T03:03:31;16.90;;;12.70;;
51529;SDS011;37613;51.788;21.582;2022-08-14T03:07:33;14.40;;;13.00;;
51529;SDS011;37613;51.788;21.582;2022-08-14T03:11:35;16.00;;;14.00;;
51529;SDS011;37613;51.788;21.582;2022-08-14T03:15:37;15.00;;;13.50;;
51529;SDS011;37613;51.788;21.582;2022-08-14T03:19:51;15.00;;;13.60;;
51529;SDS011;37613;51.788;21.582;2022-08-14T03:23:53;15.50;;;14.00;;
51529;SDS011;37613;51.788;21.582;2022-08-14T03:28:12;16.20;;;14.30;;
51529;SDS011;37613;51.788;21.582;2022-08-14T03:32:15;17.40;;;13.80;;
51529;SDS011;37613;51.788;21.582;2022-08-14T03:36:18;16.20;;;14.50;;
51529;SDS011;37613;51.788;21.582;2022-08-14T03:40:21;17.00;;;14.80;;
51529;SDS011;37613;51.788;21.582;2022-08-14T03:44:25;16.30;;;14.60;;
51529;SDS011;37613;51.788;21.582;2022-08-14T03:48:30;16.70;;;14.80;;
51529;SDS011;37613;51.788;21.582;2022-08-14T03:52:31;18.60;;;14.50;;
51529;SDS011;37613;51.788;21.582;2022-08-14T03:56:37;15.10;;;13.50;;
51529;SDS011;37613;51.788;21.582;2022-08-14T04:00:40;15.90;;;14.30;;
51529;SDS011;37613;51.788;21.582;2022-08-14T04:04:42;15.50;;;13.90;;
51529;SDS011;37613;51.788;21.582;2022-08-14T04:08:44;19.60;;;14.60;;
51529;SDS011;37613;51.788;21.582;2022-08-14T04:12:47;19.00;;;15.60;;
51529;SDS011;37613;51.788;21.582;2022-08-14T04:16:49;16.40;;;14.70;;
51529;SDS011;37613;51.788;21.582;2022-08-14T04:20:51;17.50;;;15.70;;
51529;SDS011;37613;51.788;21.582;2022-08-14T04:24:53;18.10;;;16.40;;
51529;SDS011;37613;51.788;21.582;2022-08-14T04:28:55;22.10;;;16.50;;
51529;SDS011;37613;51.788;21.582;2022-08-14T04:32:57;20.10;;;16.00;;
51529;SDS011;37613;51.788;21.582;2022-08-14T04:37:00;22.50;;;16.90;;
51529;SDS011;37613;51.788;21.582;2022-08-14T04:41:20;19.00;;;15.90;;
51529;SDS011;37613;51.788;21.582;2022-08-14T04:45:41;19.30;;;17.00;;
51529;SDS011;37613;51.788;21.582;2022-08-14T04:49:42;18.90;;;17.00;;
51529;SDS011;37613;51.788;21.582;2022-08-14T04:53:45;19.80;;;16.60;;
51529;SDS011;37613;51.788;21.582;2022-08-14T04:57:49;20.20;;;18.10;;
51529;SDS011;37613;51.788;21.582;2022-08-14T05:01:51;20.40;;;16.70;;
51529;SDS011;37613;51.788;21.582;2022-08-14T05:05:55;20.80;;;17.70;;
51529;SDS011;37613;51.788;21.582;2022-08-14T05:09:59;23.30;;;16.60;;
51529;SDS011;37613;51.788;21.582;2022-08-14T05:14:01;26.00;;;19.40;;
51529;SDS011;37613;51.788;21.582;2022-08-14T05:18:07;24.10;;;18.30;;
51529;SDS011;37613;51.788;21.582;2022-08-14T05:22:14;24.50;;;18.60;;
51529;SDS011;37613;51.788;21.582;2022-08-14T05:26:17;23.90;;;19.60;;
51529;SDS011;37613;51.788;21.582;2022-08-14T05:30:22;24.50;;;19.70;;
51529;SDS011;37613;51.788;21.582;2022-08-14T05:34:24;29.80;;;21.60;;
51529;SDS011;37613;51.788;21.582;2022-08-14T05:38:34;24.30;;;18.40;;
51529;SDS011;37613;51.788;21.582;2022-08-14T05:42:39;23.80;;;19.70;;
51529;SDS011;37613;51.788;21.582;2022-08-14T05:46:41;27.70;;;18.70;;
51529;SDS011;37613;51.788;21.582;2022-08-14T05:50:43;24.00;;;18.60;;
51529;SDS011;37613;51.788;21.582;2022-08-14T05:58:47;24.30;;;18.30;;
51529;SDS011;37613;51.788;21.582;2022-08-14T06:02:49;27.60;;;17.70;;
51529;SDS011;37613;51.788;21.582;2022-08-14T06:06:51;17.80;;;15.70;;
51529;SDS011;37613;51.788;21.582;2022-08-14T06:10:53;19.40;;;15.90;;
51529;SDS011;37613;51.788;21.582;2022-08-14T06:14:57;20.40;;;15.00;;
51529;SDS011;37613;51.788;21.582;2022-08-14T06:18:59;19.80;;;15.00;;
51529;SDS011;37613;51.788;21.582;2022-08-14T06:23:01;17.60;;;14.30;;
51529;SDS011;37613;51.788;21.582;2022-08-14T06:27:03;16.30;;;13.40;;
51529;SDS011;37613;51.788;21.582;2022-08-14T06:31:05;17.80;;;14.30;;
51529;SDS011;37613;51.788;21.582;2022-08-14T06:35:08;16.00;;;14.40;;
51529;SDS011;37613;51.788;21.582;2022-08-14T06:39:10;15.80;;;13.40;;
51529;SDS011;37613;51.788;21.582;2022-08-14T06:43:13;15.20;;;13.10;;
51529;SDS011;37613;51.788;21.582;2022-08-14T06:47:19;15.20;;;13.10;;
51529;SDS011;37613;51.788;21.582;2022-08-14T06:51:20;17.10;;;14.10;;
51529;SDS011;37613;51.788;21.582;2022-08-14T06:55:22;17.70;;;14.80;;
51529;SDS011;37613;51.788;21.582;2022-08-14T06:59:24;19.70;;;13.80;;
51529;SDS011;37613;51.788;21.582;2022-08-14T07:03:27;22.20;;;16.50;;
51529;SDS011;37613;51.788;21.582;2022-08-14T07:07:49;19.60;;;14.50;;
51529;SDS011;37613;51.788;21.582;2022-08-14T07:11:51;16.20;;;13.40;;
51529;SDS011;37613;51.788;21.582;2022-08-14T07:15:54;16.90;;;13.30;;
51529;SDS011;37613;51.788;21.582;2022-08-14T07:19:57;18.00;;;14.30;;
51529;SDS011;37613;51.788;21.582;2022-08-14T07:23:59;17.70;;;13.70;;
51529;SDS011;37613;51.788;21.582;2022-08-14T07:28:07;16.50;;;14.20;;
51529;SDS011;37613;51.788;21.582;2022-08-14T07:32:13;17.90;;;16.00;;
51529;SDS011;37613;51.788;21.582;2022-08-14T07:36:16;18.80;;;14.00;;
51529;SDS011;37613;51.788;21.582;2022-08-14T07:40:21;18.10;;;15.40;;
51529;SDS011;37613;51.788;21.582;2022-08-14T07:44:23;19.20;;;17.00;;
51529;SDS011;37613;51.788;21.582;2022-08-14T07:48:25;38.80;;;27.30;;
51529;SDS011;37613;51.788;21.582;2022-08-14T07:52:27;24.70;;;17.80;;
51529;SDS011;37613;51.788;21.582;2022-08-14T07:56:30;26.90;;;18.00;;
51529;SDS011;37613;51.788;21.582;2022-08-14T08:00:32;22.10;;;18.10;;
51529;SDS011;37613;51.788;21.582;2022-08-14T08:04:34;27.80;;;20.70;;
51529;SDS011;37613;51.788;21.582;2022-08-14T08:08:42;19.90;;;17.00;;
51529;SDS011;37613;51.788;21.582;2022-08-14T08:12:46;19.00;;;16.70;;
51529;SDS011;37613;51.788;21.582;2022-08-14T08:16:48;19.90;;;14.70;;
51529;SDS011;37613;51.788;21.582;2022-08-14T08:20:51;19.00;;;14.40;;
51529;SDS011;37613;51.788;21.582;2022-08-14T08:24:54;17.30;;;14.50;;
51529;SDS011;37613;51.788;21.582;2022-08-14T08:28:56;15.10;;;13.60;;
51529;SDS011;37613;51.788;21.582;2022-08-14T08:33:00;18.60;;;15.10;;
51529;SDS011;37613;51.788;21.582;2022-08-14T08:37:02;16.40;;;13.10;;
51529;SDS011;37613;51.788;21.582;2022-08-14T08:41:04;16.70;;;14.10;;
51529;SDS011;37613;51.788;21.582;2022-08-14T08:45:06;19.20;;;13.70;;
51529;SDS011;37613;51.788;21.582;2022-08-14T08:49:09;15.40;;;13.70;;
51529;SDS011;37613;51.788;21.582;2022-08-14T08:53:11;19.50;;;14.20;;
51529;SDS011;37613;51.788;21.582;2022-08-14T08:57:13;18.40;;;14.20;;
51529;SDS011;37613;51.788;21.582;2022-08-14T09:01:14;17.40;;;13.50;;
51529;SDS011;37613;51.788;21.582;2022-08-14T09:05:16;18.20;;;13.20;;
51529;SDS011;37613;51.788;21.582;2022-08-14T09:09:25;15.10;;;12.90;;
51529;SDS011;37613;51.788;21.582;2022-08-14T09:13:31;15.90;;;12.90;;
51529;SDS011;37613;51.788;21.582;2022-08-14T09:17:33;14.00;;;12.30;;
51529;SDS011;37613;51.788;21.582;2022-08-14T09:21:37;17.30;;;13.10;;
51529;SDS011;37613;51.788;21.582;2022-08-14T09:25:41;21.10;;;14.10;;
51529;SDS011;37613;51.788;21.582;2022-08-14T09:29:45;15.90;;;13.60;;
51529;SDS011;37613;51.788;21.582;2022-08-14T09:51:00;12.60;;;11.30;;
51529;SDS011;37613;51.788;21.582;2022-08-14T09:55:02;14.50;;;11.60;;
51529;SDS011;37613;51.788;21.582;2022-08-14T09:59:11;18.50;;;11.80;;
51529;SDS011;37613;51.788;21.582;2022-08-14T10:03:33;11.50;;;10.20;;
51529;SDS011;37613;51.788;21.582;2022-08-14T10:07:46;14.40;;;11.00;;
51529;SDS011;37613;51.788;21.582;2022-08-14T10:11:54;12.00;;;10.70;;
51529;SDS011;37613;51.788;21.582;2022-08-14T10:15:57;17.40;;;10.40;;
51529;SDS011;37613;51.788;21.582;2022-08-14T10:20:03;13.90;;;11.20;;
51529;SDS011;37613;51.788;21.582;2022-08-14T10:24:08;12.50;;;11.10;;
51529;SDS011;37613;51.788;21.582;2022-08-14T10:28:11;11.80;;;10.60;;
51529;SDS011;37613;51.788;21.582;2022-08-14T10:32:16;11.90;;;10.60;;
51529;SDS011;37613;51.788;21.582;2022-08-14T10:36:28;12.70;;;11.40;;
51529;SDS011;37613;51.788;21.582;2022-08-14T10:40:33;13.60;;;11.90;;
51529;SDS011;37613;51.788;21.582;2022-08-14T10:48:41;12.90;;;11.60;;
51529;SDS011;37613;51.788;21.582;2022-08-14T10:52:57;13.20;;;11.40;;
51529;SDS011;37613;51.788;21.582;2022-08-14T10:57:16;11.70;;;10.40;;
51529;SDS011;37613;51.788;21.582;2022-08-14T11:01:28;11.60;;;10.40;;
51529;SDS011;37613;51.788;21.582;2022-08-14T11:09:57;14.50;;;12.00;;
51529;SDS011;37613;51.788;21.582;2022-08-14T11:14:00;12.80;;;11.50;;
51529;SDS011;37613;51.788;21.582;2022-08-14T11:18:09;14.50;;;11.80;;
51529;SDS011;37613;51.788;21.582;2022-08-14T11:22:13;14.70;;;12.60;;
51529;SDS011;37613;51.788;21.582;2022-08-14T11:26:17;15.50;;;12.90;;
51529;SDS011;37613;51.788;21.582;2022-08-14T11:30:22;16.80;;;13.40;;
51529;SDS011;37613;51.788;21.582;2022-08-14T11:34:26;13.70;;;12.00;;
51529;SDS011;37613;51.788;21.582;2022-08-14T11:38:34;16.00;;;11.70;;
51529;SDS011;37613;51.788;21.582;2022-08-14T11:42:46;18.80;;;14.10;;
51529;SDS011;37613;51.788;21.582;2022-08-14T11:46:52;16.90;;;11.90;;
51529;SDS011;37613;51.788;21.582;2022-08-14T11:50:55;13.70;;;12.00;;
51529;SDS011;37613;51.788;21.582;2022-08-14T11:58:59;16.40;;;12.50;;
51529;SDS011;37613;51.788;21.582;2022-08-14T12:03:04;14.70;;;12.20;;
51529;SDS011;37613;51.788;21.582;2022-08-14T12:07:06;19.60;;;15.80;;
51529;SDS011;37613;51.788;21.582;2022-08-14T12:11:09;14.70;;;11.10;;
51529;SDS011;37613;51.788;21.582;2022-08-14T12:15:15;13.80;;;11.80;;
51529;SDS011;37613;51.788;21.582;2022-08-14T12:19:17;14.60;;;10.70;;
51529;SDS011;37613;51.788;21.582;2022-08-14T12:23:20;13.70;;;12.10;;
51529;SDS011;37613;51.788;21.582;2022-08-14T12:27:34;14.00;;;11.60;;
51529;SDS011;37613;51.788;21.582;2022-08-14T12:31:37;11.90;;;10.40;;
51529;SDS011;37613;51.788;21.582;2022-08-14T12:35:44;11.80;;;10.40;;
51529;SDS011;37613;51.788;21.582;2022-08-14T12:39:46;19.30;;;15.60;;
51529;SDS011;37613;51.788;21.582;2022-08-14T12:43:52;18.80;;;15.80;;
51529;SDS011;37613;51.788;21.582;2022-08-14T12:48:04;15.30;;;11.10;;
51529;SDS011;37613;51.788;21.582;2022-08-14T12:52:06;12.00;;;10.80;;
51529;SDS011;37613;51.788;21.582;2022-08-14T12:56:15;17.10;;;13.10;;
51529;SDS011;37613;51.788;21.582;2022-08-14T13:00:23;16.30;;;12.70;;
51529;SDS011;37613;51.788;21.582;2022-08-14T13:04:25;14.80;;;12.10;;
51529;SDS011;37613;51.788;21.582;2022-08-14T13:18:44;13.30;;;10.50;;
51529;SDS011;37613;51.788;21.582;2022-08-14T13:22:47;13.20;;;10.10;;
51529;SDS011;37613;51.788;21.582;2022-08-14T13:26:50;14.70;;;12.40;;
51529;SDS011;37613;51.788;21.582;2022-08-14T13:30:56;12.40;;;10.50;;
51529;SDS011;37613;51.788;21.582;2022-08-14T13:35:01;11.80;;;10.10;;
51529;SDS011;37613;51.788;21.582;2022-08-14T13:43:05;12.30;;;10.40;;
51529;SDS011;37613;51.788;21.582;2022-08-14T13:47:09;11.60;;;10.20;;
51529;SDS011;37613;51.788;21.582;2022-08-14T13:51:12;14.00;;;10.60;;
51529;SDS011;37613;51.788;21.582;2022-08-14T13:55:17;15.60;;;11.00;;
51529;SDS011;37613;51.788;21.582;2022-08-14T13:59:27;11.60;;;9.80;;
51529;SDS011;37613;51.788;21.582;2022-08-14T14:03:29;14.50;;;10.60;;
51529;SDS011;37613;51.788;21.582;2022-08-14T14:07:35;20.10;;;16.70;;
51529;SDS011;37613;51.788;21.582;2022-08-14T14:15:39;12.90;;;11.30;;
51529;SDS011;37613;51.788;21.582;2022-08-14T14:19:44;11.10;;;10.00;;
51529;SDS011;37613;51.788;21.582;2022-08-14T14:23:46;17.40;;;11.10;;
51529;SDS011;37613;51.788;21.582;2022-08-14T14:27:52;15.10;;;10.70;;
51529;SDS011;37613;51.788;21.582;2022-08-14T14:31:57;12.20;;;10.40;;
51529;SDS011;37613;51.788;21.582;2022-08-14T14:36:01;15.80;;;12.50;;
51529;SDS011;37613;51.788;21.582;2022-08-14T14:40:04;16.20;;;12.60;;
51529;SDS011;37613;51.788;21.582;2022-08-14T14:44:07;18.40;;;12.20;;
51529;SDS011;37613;51.788;21.582;2022-08-14T14:48:15;28.20;;;11.40;;
51529;SDS011;37613;51.788;21.582;2022-08-14T14:52:19;14.90;;;11.30;;
51529;SDS011;37613;51.788;21.582;2022-08-14T14:56:24;14.90;;;12.60;;
51529;SDS011;37613;51.788;21.582;2022-08-14T15:00:26;15.30;;;12.40;;
51529;SDS011;37613;51.788;21.582;2022-08-14T15:04:31;18.20;;;13.00;;
51529;SDS011;37613;51.788;21.582;2022-08-14T15:08:35;15.60;;;12.40;;
51529;SDS011;37613;51.788;21.582;2022-08-14T15:12:39;15.60;;;13.10;;
51529;SDS011;37613;51.788;21.582;2022-08-14T15:16:41;14.70;;;12.30;;
51529;SDS011;37613;51.788;21.582;2022-08-14T15:20:44;14.40;;;12.00;;
51529;SDS011;37613;51.788;21.582;2022-08-14T15:24:46;18.70;;;13.20;;
51529;SDS011;37613;51.788;21.582;2022-08-14T15:28:51;16.30;;;13.30;;
51529;SDS011;37613;51.788;21.582;2022-08-14T15:32:53;16.00;;;12.10;;
51529;SDS011;37613;51.788;21.582;2022-08-14T15:36:56;19.70;;;12.90;;
51529;SDS011;37613;51.788;21.582;2022-08-14T15:40:58;18.50;;;12.40;;
51529;SDS011;37613;51.788;21.582;2022-08-14T15:45:03;14.40;;;11.60;;
51529;SDS011;37613;51.788;21.582;2022-08-14T15:49:07;15.80;;;11.30;;
51529;SDS011;37613;51.788;21.582;2022-08-14T15:53:09;13.40;;;11.50;;
51529;SDS011;37613;51.788;21.582;2022-08-14T16:01:13;13.70;;;11.50;;
51529;SDS011;37613;51.788;21.582;2022-08-14T16:05:21;14.40;;;11.40;;
51529;SDS011;37613;51.788;21.582;2022-08-14T16:09:25;16.00;;;11.00;;
51529;SDS011;37613;51.788;21.582;2022-08-14T16:17:32;14.70;;;11.20;;
51529;SDS011;37613;51.788;21.582;2022-08-14T16:21:39;19.00;;;11.80;;
51529;SDS011;37613;51.788;21.582;2022-08-14T16:25:43;16.00;;;11.80;;
51529;SDS011;37613;51.788;21.582;2022-08-14T16:29:45;16.10;;;10.60;;
51529;SDS011;37613;51.788;21.582;2022-08-14T16:37:49;16.20;;;10.80;;
51529;SDS011;37613;51.788;21.582;2022-08-14T16:41:52;16.00;;;11.60;;
51529;SDS011;37613;51.788;21.582;2022-08-14T16:45:58;14.70;;;10.70;;
51529;SDS011;37613;51.788;21.582;2022-08-14T16:50:00;15.60;;;12.40;;
51529;SDS011;37613;51.788;21.582;2022-08-14T16:54:04;12.30;;;10.90;;
51529;SDS011;37613;51.788;21.582;2022-08-14T16:58:08;12.00;;;10.60;;
51529;SDS011;37613;51.788;21.582;2022-08-14T17:02:13;14.40;;;10.40;;
51529;SDS011;37613;51.788;21.582;2022-08-14T17:06:25;14.80;;;11.00;;
51529;SDS011;37613;51.788;21.582;2022-08-14T17:14:52;14.10;;;11.60;;
51529;SDS011;37613;51.788;21.582;2022-08-14T17:18:57;17.10;;;12.80;;
51529;SDS011;37613;51.788;21.582;2022-08-14T17:23:01;17.70;;;13.10;;
51529;SDS011;37613;51.788;21.582;2022-08-14T17:27:03;15.00;;;13.20;;
51529;SDS011;37613;51.788;21.582;2022-08-14T17:31:05;17.00;;;12.80;;
51529;SDS011;37613;51.788;21.582;2022-08-14T17:35:08;16.90;;;14.90;;
51529;SDS011;37613;51.788;21.582;2022-08-14T17:39:15;15.60;;;13.30;;
51529;SDS011;37613;51.788;21.582;2022-08-14T17:43:18;17.60;;;15.40;;
51529;SDS011;37613;51.788;21.582;2022-08-14T17:47:20;19.10;;;16.10;;
51529;SDS011;37613;51.788;21.582;2022-08-14T17:51:27;17.30;;;13.90;;
51529;SDS011;37613;51.788;21.582;2022-08-14T17:55:28;18.50;;;14.20;;
51529;SDS011;37613;51.788;21.582;2022-08-14T17:59:43;19.40;;;14.40;;
51529;SDS011;37613;51.788;21.582;2022-08-14T18:03:48;17.60;;;12.30;;
51529;SDS011;37613;51.788;21.582;2022-08-14T18:07:53;23.30;;;19.70;;
51529;SDS011;37613;51.788;21.582;2022-08-14T18:15:58;18.80;;;15.20;;
51529;SDS011;37613;51.788;21.582;2022-08-14T18:20:03;17.90;;;14.50;;
51529;SDS011;37613;51.788;21.582;2022-08-14T18:24:05;17.30;;;13.60;;
51529;SDS011;37613;51.788;21.582;2022-08-14T18:28:11;15.60;;;13.70;;
51529;SDS011;37613;51.788;21.582;2022-08-14T18:36:39;21.30;;;16.30;;
51529;SDS011;37613;51.788;21.582;2022-08-14T18:40:49;23.60;;;17.00;;
51529;SDS011;37613;51.788;21.582;2022-08-14T18:49:15;18.50;;;15.20;;
51529;SDS011;37613;51.788;21.582;2022-08-14T18:53:17;24.10;;;14.90;;
51529;SDS011;37613;51.788;21.582;2022-08-14T19:01:25;17.60;;;14.70;;
51529;SDS011;37613;51.788;21.582;2022-08-14T19:14:02;29.20;;;20.20;;
51529;SDS011;37613;51.788;21.582;2022-08-14T19:22:27;28.60;;;17.60;;
51529;SDS011;37613;51.788;21.582;2022-08-14T19:26:31;20.50;;;15.70;;
51529;SDS011;37613;51.788;21.582;2022-08-14T19:30:33;19.50;;;13.70;;
51529;SDS011;37613;51.788;21.582;2022-08-14T19:42:44;16.00;;;13.70;;
51529;SDS011;37613;51.788;21.582;2022-08-14T19:46:51;18.90;;;13.70;;
51529;SDS011;37613;51.788;21.582;2022-08-14T19:51:01;16.20;;;13.50;;
51529;SDS011;37613;51.788;21.582;2022-08-14T19:55:15;17.00;;;12.50;;
51529;SDS011;37613;51.788;21.582;2022-08-14T19:59:21;17.90;;;12.60;;
51529;SDS011;37613;51.788;21.582;2022-08-14T20:03:23;16.90;;;12.30;;
51529;SDS011;37613;51.788;21.582;2022-08-14T20:07:30;15.50;;;12.50;;
51529;SDS011;37613;51.788;21.582;2022-08-14T20:11:34;20.00;;;12.90;;
51529;SDS011;37613;51.788;21.582;2022-08-14T20:15:40;14.90;;;12.00;;
51529;SDS011;37613;51.788;21.582;2022-08-14T20:19:42;15.80;;;11.80;;
51529;SDS011;37613;51.788;21.582;2022-08-14T20:23:44;16.50;;;12.70;;
51529;SDS011;37613;51.788;21.582;2022-08-14T20:27:50;13.50;;;11.80;;
51529;SDS011;37613;51.788;21.582;2022-08-14T20:31:53;14.40;;;12.20;;
51529;SDS011;37613;51.788;21.582;2022-08-14T20:35:56;12.60;;;11.00;;
51529;SDS011;37613;51.788;21.582;2022-08-14T20:39:58;13.10;;;10.90;;
51529;SDS011;37613;51.788;21.582;2022-08-14T20:44:00;16.70;;;11.10;;
51529;SDS011;37613;51.788;21.582;2022-08-14T20:48:24;13.90;;;10.90;;
51529;SDS011;37613;51.788;21.582;2022-08-14T20:52:28;12.80;;;11.10;;
51529;SDS011;37613;51.788;21.582;2022-08-14T20:56:34;18.70;;;11.50;;
51529;SDS011;37613;51.788;21.582;2022-08-14T21:00:41;16.20;;;10.80;;
51529;SDS011;37613;51.788;21.582;2022-08-14T21:04:55;12.40;;;10.80;;
51529;SDS011;37613;51.788;21.582;2022-08-14T21:09:03;16.50;;;11.70;;
51529;SDS011;37613;51.788;21.582;2022-08-14T21:13:08;14.40;;;11.90;;
51529;SDS011;37613;51.788;21.582;2022-08-14T21:17:15;15.60;;;12.20;;
51529;SDS011;37613;51.788;21.582;2022-08-14T21:21:18;16.20;;;12.00;;
51529;SDS011;37613;51.788;21.582;2022-08-14T21:25:23;16.60;;;11.60;;
51529;SDS011;37613;51.788;21.582;2022-08-14T21:29:25;11.70;;;10.30;;
51529;SDS011;37613;51.788;21.582;2022-08-14T21:33:30;13.20;;;10.90;;
51529;SDS011;37613;51.788;21.582;2022-08-14T21:37:33;14.40;;;10.40;;
51529;SDS011;37613;51.788;21.582;2022-08-14T21:41:34;14.00;;;10.50;;
51529;SDS011;37613;51.788;21.582;2022-08-14T21:45:37;14.80;;;10.90;;
51529;SDS011;37613;51.788;21.582;2022-08-14T21:49:39;11.60;;;10.40;;
51529;SDS011;37613;51.788;21.582;2022-08-14T21:53:43;12.30;;;10.50;;
51529;SDS011;37613;51.788;21.582;2022-08-14T21:57:46;15.60;;;9.80;;
51529;SDS011;37613;51.788;21.582;2022-08-14T22:01:49;14.10;;;9.90;;
51529;SDS011;37613;51.788;21.582;2022-08-14T22:06:02;11.50;;;9.40;;
51529;SDS011;37613;51.788;21.582;2022-08-14T22:10:08;11.30;;;10.00;;
51529;SDS011;37613;51.788;21.582;2022-08-14T22:14:11;12.10;;;10.40;;
51529;SDS011;37613;51.788;21.582;2022-08-14T22:18:13;12.40;;;10.30;;
51529;SDS011;37613;51.788;21.582;2022-08-14T22:22:17;12.10;;;10.30;;
51529;SDS011;37613;51.788;21.582;2022-08-14T22:26:22;15.20;;;10.00;;
51529;SDS011;37613;51.788;21.582;2022-08-14T22:30:24;18.10;;;10.20;;
51529;SDS011;37613;51.788;21.582;2022-08-14T22:34:26;13.40;;;10.30;;
51529;SDS011;37613;51.788;21.582;2022-08-14T22:38:28;15.70;;;10.70;;
51529;SDS011;37613;51.788;21.582;2022-08-14T22:42:30;14.60;;;11.90;;
51529;SDS011;37613;51.788;21.582;2022-08-14T22:46:33;17.80;;;11.90;;
51529;SDS011;37613;51.788;21.582;2022-08-14T22:50:38;18.60;;;12.10;;
51529;SDS011;37613;51.788;21.582;2022-08-14T22:54:44;19.00;;;12.40;;
51529;SDS011;37613;51.788;21.582;2022-08-14T22:58:46;26.90;;;14.30;;
51529;SDS011;37613;51.788;21.582;2022-08-14T23:02:51;18.90;;;11.80;;
51529;SDS011;37613;51.788;21.582;2022-08-14T23:06:59;21.60;;;12.90;;
51529;SDS011;37613;51.788;21.582;2022-08-14T23:11:05;19.70;;;13.20;;
51529;SDS011;37613;51.788;21.582;2022-08-14T23:15:11;19.70;;;12.50;;
51529;SDS011;37613;51.788;21.582;2022-08-14T23:19:19;21.80;;;12.90;;
51529;SDS011;37613;51.788;21.582;2022-08-14T23:23:22;18.20;;;13.30;;
51529;SDS011;37613;51.788;21.582;2022-08-14T23:27:24;22.00;;;12.60;;
51529;SDS011;37613;51.788;21.582;2022-08-14T23:31:33;17.60;;;13.80;;
51529;SDS011;37613;51.788;21.582;2022-08-14T23:35:37;16.80;;;12.90;;
51529;SDS011;37613;51.788;21.582;2022-08-14T23:39:42;17.50;;;13.00;;
51529;SDS011;37613;51.788;21.582;2022-08-14T23:43:45;17.20;;;12.30;;
51529;SDS011;37613;51.788;21.582;2022-08-14T23:47:52;16.60;;;12.50;;
51529;SDS011;37613;51.788;21.582;2022-08-14T23:51:54;19.40;;;12.60;;
51529;SDS011;37613;51.788;21.582;2022-08-14T23:55:58;14.60;;;12.10;;
